sensor_id;sensor_type;location;lat;lon;timestamp;P1;durP1;ratioP1;P2;durP2;ratioP2
19213;SDS011;9741;51.020;5.304;2023-04-26T00:00:19;2.10;;;1.80;;
19213;SDS011;9741;51.020;5.304;2023-04-26T00:02:46;1.77;;;1.67;;
19213;SDS011;9741;51.020;5.304;2023-04-26T00:05:19;1.70;;;1.43;;
19213;SDS011;9741;51.020;5.304;2023-04-26T00:07:47;1.60;;;1.50;;
19213;SDS011;9741;51.020;5.304;2023-04-26T00:10:15;5.60;;;1.30;;
19213;SDS011;9741;51.020;5.304;2023-04-26T00:12:43;0.63;;;0.63;;
19213;SDS011;9741;51.020;5.304;2023-04-26T00:15:11;4.80;;;0.97;;
19213;SDS011;9741;51.020;5.304;2023-04-26T00:17:39;1.20;;;0.80;;
19213;SDS011;9741;51.020;5.304;2023-04-26T00:20:07;1.13;;;1.03;;
19213;SDS011;9741;51.020;5.304;2023-04-26T00:22:44;1.30;;;1.20;;
19213;SDS011;9741;51.020;5.304;2023-04-26T00:25:12;0.63;;;0.60;;
19213;SDS011;9741;51.020;5.304;2023-04-26T00:27:40;1.10;;;1.10;;
19213;SDS011;9741;51.020;5.304;2023-04-26T00:30:09;2.83;;;1.53;;
19213;SDS011;9741;51.020;5.304;2023-04-26T00:32:37;2.87;;;1.30;;
19213;SDS011;9741;51.020;5.304;2023-04-26T00:35:09;2.73;;;1.57;;
19213;SDS011;9741;51.020;5.304;2023-04-26T00:37:36;0.60;;;0.60;;
19213;SDS011;9741;51.020;5.304;2023-04-26T00:40:07;2.83;;;1.13;;
19213;SDS011;9741;51.020;5.304;2023-04-26T00:42:36;2.63;;;1.27;;
19213;SDS011;9741;51.020;5.304;2023-04-26T00:45:06;2.37;;;1.83;;
19213;SDS011;9741;51.020;5.304;2023-04-26T00:47:34;2.37;;;1.57;;
19213;SDS011;9741;51.020;5.304;2023-04-26T00:50:02;1.10;;;1.10;;
19213;SDS011;9741;51.020;5.304;2023-04-26T00:52:32;1.27;;;1.17;;
19213;SDS011;9741;51.020;5.304;2023-04-26T00:55:05;1.03;;;0.83;;
19213;SDS011;9741;51.020;5.304;2023-04-26T00:57:34;1.60;;;1.50;;
19213;SDS011;9741;51.020;5.304;2023-04-26T01:00:02;1.27;;;1.17;;
19213;SDS011;9741;51.020;5.304;2023-04-26T01:02:33;1.50;;;1.00;;
19213;SDS011;9741;51.020;5.304;2023-04-26T01:05:03;1.23;;;1.13;;
19213;SDS011;9741;51.020;5.304;2023-04-26T01:07:31;1.17;;;1.17;;
19213;SDS011;9741;51.020;5.304;2023-04-26T01:09:59;2.10;;;1.70;;
19213;SDS011;9741;51.020;5.304;2023-04-26T01:12:32;1.37;;;1.27;;
19213;SDS011;9741;51.020;5.304;2023-04-26T01:14:59;1.47;;;1.13;;
19213;SDS011;9741;51.020;5.304;2023-04-26T01:17:31;2.60;;;1.30;;
19213;SDS011;9741;51.020;5.304;2023-04-26T01:19:59;1.43;;;1.10;;
19213;SDS011;9741;51.020;5.304;2023-04-26T01:22:35;1.77;;;1.67;;
19213;SDS011;9741;51.020;5.304;2023-04-26T01:25:05;1.63;;;1.53;;
19213;SDS011;9741;51.020;5.304;2023-04-26T01:27:37;0.67;;;0.67;;
19213;SDS011;9741;51.020;5.304;2023-04-26T01:30:07;0.93;;;0.93;;
19213;SDS011;9741;51.020;5.304;2023-04-26T01:32:35;0.80;;;0.80;;
19213;SDS011;9741;51.020;5.304;2023-04-26T01:35:03;5.10;;;2.13;;
19213;SDS011;9741;51.020;5.304;2023-04-26T01:37:33;2.40;;;1.40;;
19213;SDS011;9741;51.020;5.304;2023-04-26T01:40:00;1.57;;;1.47;;
19213;SDS011;9741;51.020;5.304;2023-04-26T01:42:31;0.60;;;0.60;;
19213;SDS011;9741;51.020;5.304;2023-04-26T01:44:59;1.47;;;1.27;;
19213;SDS011;9741;51.020;5.304;2023-04-26T01:47:27;4.43;;;1.37;;
19213;SDS011;9741;51.020;5.304;2023-04-26T01:49:55;1.50;;;0.97;;
19213;SDS011;9741;51.020;5.304;2023-04-26T01:52:23;2.17;;;1.57;;
19213;SDS011;9741;51.020;5.304;2023-04-26T01:54:52;1.33;;;1.23;;
19213;SDS011;9741;51.020;5.304;2023-04-26T01:57:20;1.40;;;1.30;;
19213;SDS011;9741;51.020;5.304;2023-04-26T01:59:48;2.17;;;1.00;;
19213;SDS011;9741;51.020;5.304;2023-04-26T02:02:16;0.97;;;0.97;;
19213;SDS011;9741;51.020;5.304;2023-04-26T02:04:44;3.50;;;2.43;;
19213;SDS011;9741;51.020;5.304;2023-04-26T02:07:12;1.23;;;1.13;;
19213;SDS011;9741;51.020;5.304;2023-04-26T02:09:39;2.10;;;1.33;;
19213;SDS011;9741;51.020;5.304;2023-04-26T02:12:09;2.57;;;0.83;;
19213;SDS011;9741;51.020;5.304;2023-04-26T02:14:38;1.17;;;1.00;;
19213;SDS011;9741;51.020;5.304;2023-04-26T02:17:06;1.30;;;1.20;;
19213;SDS011;9741;51.020;5.304;2023-04-26T02:19:35;1.80;;;1.37;;
19213;SDS011;9741;51.020;5.304;2023-04-26T02:22:03;2.17;;;1.53;;
19213;SDS011;9741;51.020;5.304;2023-04-26T02:24:32;5.67;;;1.37;;
19213;SDS011;9741;51.020;5.304;2023-04-26T02:27:00;1.43;;;1.23;;
19213;SDS011;9741;51.020;5.304;2023-04-26T02:29:30;2.50;;;1.97;;
19213;SDS011;9741;51.020;5.304;2023-04-26T02:31:58;2.63;;;1.53;;
19213;SDS011;9741;51.020;5.304;2023-04-26T02:34:25;1.40;;;1.30;;
19213;SDS011;9741;51.020;5.304;2023-04-26T02:36:54;0.87;;;0.87;;
19213;SDS011;9741;51.020;5.304;2023-04-26T02:39:22;1.13;;;0.90;;
19213;SDS011;9741;51.020;5.304;2023-04-26T02:41:50;1.33;;;1.23;;
19213;SDS011;9741;51.020;5.304;2023-04-26T02:44:18;2.50;;;1.53;;
19213;SDS011;9741;51.020;5.304;2023-04-26T02:46:47;1.00;;;1.00;;
19213;SDS011;9741;51.020;5.304;2023-04-26T02:49:16;2.63;;;1.90;;
19213;SDS011;9741;51.020;5.304;2023-04-26T02:51:46;0.90;;;0.90;;
19213;SDS011;9741;51.020;5.304;2023-04-26T02:54:16;1.80;;;1.67;;
19213;SDS011;9741;51.020;5.304;2023-04-26T02:56:44;1.80;;;1.33;;
19213;SDS011;9741;51.020;5.304;2023-04-26T02:59:12;0.43;;;0.43;;
19213;SDS011;9741;51.020;5.304;2023-04-26T03:01:40;1.27;;;0.80;;
19213;SDS011;9741;51.020;5.304;2023-04-26T03:04:10;2.60;;;1.83;;
19213;SDS011;9741;51.020;5.304;2023-04-26T03:06:38;0.97;;;0.93;;
19213;SDS011;9741;51.020;5.304;2023-04-26T03:09:06;0.77;;;0.77;;
19213;SDS011;9741;51.020;5.304;2023-04-26T03:11:34;6.63;;;1.60;;
19213;SDS011;9741;51.020;5.304;2023-04-26T03:14:02;1.23;;;1.17;;
19213;SDS011;9741;51.020;5.304;2023-04-26T03:16:30;1.07;;;1.07;;
19213;SDS011;9741;51.020;5.304;2023-04-26T03:19:06;1.00;;;1.00;;
19213;SDS011;9741;51.020;5.304;2023-04-26T03:21:35;1.53;;;1.43;;
19213;SDS011;9741;51.020;5.304;2023-04-26T03:24:03;1.67;;;1.27;;
19213;SDS011;9741;51.020;5.304;2023-04-26T03:26:31;1.63;;;1.53;;
19213;SDS011;9741;51.020;5.304;2023-04-26T03:28:58;1.50;;;1.40;;
19213;SDS011;9741;51.020;5.304;2023-04-26T03:31:26;2.77;;;0.97;;
19213;SDS011;9741;51.020;5.304;2023-04-26T03:33:53;1.43;;;1.33;;
19213;SDS011;9741;51.020;5.304;2023-04-26T03:36:22;2.47;;;1.00;;
19213;SDS011;9741;51.020;5.304;2023-04-26T03:38:52;3.73;;;1.87;;
19213;SDS011;9741;51.020;5.304;2023-04-26T03:41:19;1.37;;;1.27;;
19213;SDS011;9741;51.020;5.304;2023-04-26T03:43:47;0.93;;;0.93;;
19213;SDS011;9741;51.020;5.304;2023-04-26T03:46:17;2.80;;;1.30;;
19213;SDS011;9741;51.020;5.304;2023-04-26T03:48:44;1.87;;;1.37;;
19213;SDS011;9741;51.020;5.304;2023-04-26T03:51:12;0.73;;;0.73;;
19213;SDS011;9741;51.020;5.304;2023-04-26T03:53:41;1.67;;;1.50;;
19213;SDS011;9741;51.020;5.304;2023-04-26T03:56:12;3.43;;;1.90;;
19213;SDS011;9741;51.020;5.304;2023-04-26T03:58:42;1.30;;;1.20;;
19213;SDS011;9741;51.020;5.304;2023-04-26T04:01:10;0.80;;;0.80;;
19213;SDS011;9741;51.020;5.304;2023-04-26T04:03:40;0.97;;;0.93;;
19213;SDS011;9741;51.020;5.304;2023-04-26T04:06:07;1.37;;;1.23;;
19213;SDS011;9741;51.020;5.304;2023-04-26T04:08:37;2.00;;;1.27;;
19213;SDS011;9741;51.020;5.304;2023-04-26T04:11:05;1.03;;;0.97;;
19213;SDS011;9741;51.020;5.304;2023-04-26T04:13:34;1.10;;;1.00;;
19213;SDS011;9741;51.020;5.304;2023-04-26T04:16:02;2.00;;;1.00;;
19213;SDS011;9741;51.020;5.304;2023-04-26T04:18:36;0.93;;;0.83;;
19213;SDS011;9741;51.020;5.304;2023-04-26T04:21:04;2.77;;;1.53;;
19213;SDS011;9741;51.020;5.304;2023-04-26T04:23:32;1.27;;;1.10;;
19213;SDS011;9741;51.020;5.304;2023-04-26T04:26:00;2.43;;;1.07;;
19213;SDS011;9741;51.020;5.304;2023-04-26T04:28:29;1.80;;;1.63;;
19213;SDS011;9741;51.020;5.304;2023-04-26T04:30:58;1.03;;;0.93;;
19213;SDS011;9741;51.020;5.304;2023-04-26T04:33:28;0.60;;;0.60;;
19213;SDS011;9741;51.020;5.304;2023-04-26T04:35:56;1.27;;;0.83;;
19213;SDS011;9741;51.020;5.304;2023-04-26T04:38:25;1.50;;;1.27;;
19213;SDS011;9741;51.020;5.304;2023-04-26T04:40:54;2.27;;;1.67;;
19213;SDS011;9741;51.020;5.304;2023-04-26T04:43:22;0.80;;;0.80;;
19213;SDS011;9741;51.020;5.304;2023-04-26T04:45:50;0.67;;;0.67;;
19213;SDS011;9741;51.020;5.304;2023-04-26T04:51:04;1.33;;;1.23;;
19213;SDS011;9741;51.020;5.304;2023-04-26T04:53:32;2.40;;;1.30;;
19213;SDS011;9741;51.020;5.304;2023-04-26T04:56:00;1.87;;;1.47;;
19213;SDS011;9741;51.020;5.304;2023-04-26T04:58:27;2.23;;;1.50;;
19213;SDS011;9741;51.020;5.304;2023-04-26T05:00:55;1.70;;;1.60;;
19213;SDS011;9741;51.020;5.304;2023-04-26T05:03:25;4.33;;;1.00;;
19213;SDS011;9741;51.020;5.304;2023-04-26T05:06:02;1.03;;;0.83;;
19213;SDS011;9741;51.020;5.304;2023-04-26T05:08:31;0.93;;;0.93;;
19213;SDS011;9741;51.020;5.304;2023-04-26T05:11:01;0.50;;;0.50;;
19213;SDS011;9741;51.020;5.304;2023-04-26T05:13:28;1.07;;;0.93;;
19213;SDS011;9741;51.020;5.304;2023-04-26T05:15:56;0.70;;;0.70;;
19213;SDS011;9741;51.020;5.304;2023-04-26T05:18:24;1.47;;;1.37;;
19213;SDS011;9741;51.020;5.304;2023-04-26T05:20:52;2.23;;;1.67;;
19213;SDS011;9741;51.020;5.304;2023-04-26T05:23:23;1.20;;;1.10;;
19213;SDS011;9741;51.020;5.304;2023-04-26T05:25:51;1.80;;;1.53;;
19213;SDS011;9741;51.020;5.304;2023-04-26T05:28:19;2.70;;;1.70;;
19213;SDS011;9741;51.020;5.304;2023-04-26T05:30:46;2.17;;;1.50;;
19213;SDS011;9741;51.020;5.304;2023-04-26T05:33:15;0.40;;;0.40;;
19213;SDS011;9741;51.020;5.304;2023-04-26T05:35:43;1.13;;;1.03;;
19213;SDS011;9741;51.020;5.304;2023-04-26T05:38:11;2.37;;;1.20;;
19213;SDS011;9741;51.020;5.304;2023-04-26T05:40:44;4.43;;;0.83;;
19213;SDS011;9741;51.020;5.304;2023-04-26T05:43:13;1.43;;;1.33;;
19213;SDS011;9741;51.020;5.304;2023-04-26T05:45:48;2.10;;;1.50;;
19213;SDS011;9741;51.020;5.304;2023-04-26T05:48:17;2.23;;;1.07;;
19213;SDS011;9741;51.020;5.304;2023-04-26T05:50:45;0.80;;;0.80;;
19213;SDS011;9741;51.020;5.304;2023-04-26T05:53:15;1.27;;;1.17;;
19213;SDS011;9741;51.020;5.304;2023-04-26T05:55:45;1.37;;;1.13;;
19213;SDS011;9741;51.020;5.304;2023-04-26T05:58:13;2.47;;;1.70;;
19213;SDS011;9741;51.020;5.304;2023-04-26T06:00:41;0.77;;;0.77;;
19213;SDS011;9741;51.020;5.304;2023-04-26T06:03:09;2.33;;;1.90;;
19213;SDS011;9741;51.020;5.304;2023-04-26T06:05:36;2.40;;;1.80;;
19213;SDS011;9741;51.020;5.304;2023-04-26T06:08:04;1.53;;;1.37;;
19213;SDS011;9741;51.020;5.304;2023-04-26T06:10:34;0.50;;;0.50;;
19213;SDS011;9741;51.020;5.304;2023-04-26T06:13:04;1.53;;;1.40;;
19213;SDS011;9741;51.020;5.304;2023-04-26T06:15:31;2.10;;;1.67;;
19213;SDS011;9741;51.020;5.304;2023-04-26T06:18:00;2.90;;;1.43;;
19213;SDS011;9741;51.020;5.304;2023-04-26T06:20:27;7.23;;;2.43;;
19213;SDS011;9741;51.020;5.304;2023-04-26T06:22:56;4.50;;;2.00;;
19213;SDS011;9741;51.020;5.304;2023-04-26T06:25:24;2.13;;;1.90;;
19213;SDS011;9741;51.020;5.304;2023-04-26T06:27:52;3.33;;;1.97;;
19213;SDS011;9741;51.020;5.304;2023-04-26T06:30:22;4.10;;;2.30;;
19213;SDS011;9741;51.020;5.304;2023-04-26T06:32:49;3.07;;;2.70;;
19213;SDS011;9741;51.020;5.304;2023-04-26T06:35:19;3.90;;;1.83;;
19213;SDS011;9741;51.020;5.304;2023-04-26T06:37:49;2.83;;;2.20;;
19213;SDS011;9741;51.020;5.304;2023-04-26T06:40:17;5.33;;;3.10;;
19213;SDS011;9741;51.020;5.304;2023-04-26T06:42:44;4.80;;;1.50;;
19213;SDS011;9741;51.020;5.304;2023-04-26T06:45:22;1.97;;;1.70;;
19213;SDS011;9741;51.020;5.304;2023-04-26T06:47:50;5.60;;;2.30;;
19213;SDS011;9741;51.020;5.304;2023-04-26T06:50:17;4.83;;;2.17;;
19213;SDS011;9741;51.020;5.304;2023-04-26T06:52:47;2.23;;;1.80;;
19213;SDS011;9741;51.020;5.304;2023-04-26T06:55:15;2.43;;;1.97;;
19213;SDS011;9741;51.020;5.304;2023-04-26T06:57:44;4.10;;;2.13;;
19213;SDS011;9741;51.020;5.304;2023-04-26T07:00:12;3.83;;;2.23;;
19213;SDS011;9741;51.020;5.304;2023-04-26T07:02:42;3.30;;;2.63;;
19213;SDS011;9741;51.020;5.304;2023-04-26T07:05:10;3.30;;;2.17;;
19213;SDS011;9741;51.020;5.304;2023-04-26T07:07:39;3.43;;;2.77;;
19213;SDS011;9741;51.020;5.304;2023-04-26T07:10:08;3.80;;;1.83;;
19213;SDS011;9741;51.020;5.304;2023-04-26T07:12:37;12.87;;;3.80;;
19213;SDS011;9741;51.020;5.304;2023-04-26T07:15:05;3.83;;;2.93;;
19213;SDS011;9741;51.020;5.304;2023-04-26T07:17:34;11.97;;;2.73;;
19213;SDS011;9741;51.020;5.304;2023-04-26T07:20:06;3.07;;;2.63;;
19213;SDS011;9741;51.020;5.304;2023-04-26T07:22:34;4.13;;;3.17;;
19213;SDS011;9741;51.020;5.304;2023-04-26T07:25:04;5.97;;;3.10;;
19213;SDS011;9741;51.020;5.304;2023-04-26T07:27:33;4.60;;;2.47;;
19213;SDS011;9741;51.020;5.304;2023-04-26T07:30:02;3.43;;;1.87;;
19213;SDS011;9741;51.020;5.304;2023-04-26T07:32:32;2.80;;;2.03;;
19213;SDS011;9741;51.020;5.304;2023-04-26T07:34:59;2.77;;;1.80;;
19213;SDS011;9741;51.020;5.304;2023-04-26T07:37:28;3.53;;;2.13;;
19213;SDS011;9741;51.020;5.304;2023-04-26T07:39:56;17.60;;;2.70;;
19213;SDS011;9741;51.020;5.304;2023-04-26T07:42:24;3.30;;;2.17;;
19213;SDS011;9741;51.020;5.304;2023-04-26T07:44:52;4.67;;;2.03;;
19213;SDS011;9741;51.020;5.304;2023-04-26T07:47:20;5.90;;;2.83;;
19213;SDS011;9741;51.020;5.304;2023-04-26T07:49:51;2.67;;;2.33;;
19213;SDS011;9741;51.020;5.304;2023-04-26T07:52:19;3.67;;;2.80;;
19213;SDS011;9741;51.020;5.304;2023-04-26T07:54:48;3.27;;;2.97;;
19213;SDS011;9741;51.020;5.304;2023-04-26T07:57:16;2.30;;;1.93;;
19213;SDS011;9741;51.020;5.304;2023-04-26T07:59:44;2.77;;;2.10;;
19213;SDS011;9741;51.020;5.304;2023-04-26T08:02:11;3.43;;;1.60;;
19213;SDS011;9741;51.020;5.304;2023-04-26T08:04:46;1.83;;;1.73;;
19213;SDS011;9741;51.020;5.304;2023-04-26T08:07:17;4.10;;;2.00;;
19213;SDS011;9741;51.020;5.304;2023-04-26T08:09:50;9.63;;;2.00;;
19213;SDS011;9741;51.020;5.304;2023-04-26T08:12:18;4.27;;;1.57;;
19213;SDS011;9741;51.020;5.304;2023-04-26T08:14:45;3.13;;;2.17;;
19213;SDS011;9741;51.020;5.304;2023-04-26T08:17:16;3.77;;;2.30;;
19213;SDS011;9741;51.020;5.304;2023-04-26T08:19:44;9.97;;;2.20;;
19213;SDS011;9741;51.020;5.304;2023-04-26T08:22:12;7.13;;;1.50;;
19213;SDS011;9741;51.020;5.304;2023-04-26T08:24:40;1.65;;;1.40;;
19213;SDS011;9741;51.020;5.304;2023-04-26T08:27:10;0.90;;;0.88;;
19213;SDS011;9741;51.020;5.304;2023-04-26T08:29:37;0.82;;;0.82;;
19213;SDS011;9741;51.020;5.304;2023-04-26T08:32:05;4.18;;;1.25;;
19213;SDS011;9741;51.020;5.304;2023-04-26T08:34:33;0.50;;;0.50;;
19213;SDS011;9741;51.020;5.304;2023-04-26T08:37:00;2.80;;;1.27;;
19213;SDS011;9741;51.020;5.304;2023-04-26T08:39:27;1.02;;;0.93;;
19213;SDS011;9741;51.020;5.304;2023-04-26T08:41:58;0.80;;;0.80;;
19213;SDS011;9741;51.020;5.304;2023-04-26T08:44:36;1.60;;;0.90;;
19213;SDS011;9741;51.020;5.304;2023-04-26T08:47:08;3.00;;;0.93;;
19213;SDS011;9741;51.020;5.304;2023-04-26T08:49:43;1.15;;;0.63;;
19213;SDS011;9741;51.020;5.304;2023-04-26T08:52:15;1.13;;;0.93;;
19213;SDS011;9741;51.020;5.304;2023-04-26T08:54:47;0.90;;;0.75;;
19213;SDS011;9741;51.020;5.304;2023-04-26T08:57:25;0.60;;;0.60;;
19213;SDS011;9741;51.020;5.304;2023-04-26T08:59:56;1.20;;;0.93;;
19213;SDS011;9741;51.020;5.304;2023-04-26T09:02:26;4.83;;;1.07;;
19213;SDS011;9741;51.020;5.304;2023-04-26T09:04:54;3.55;;;1.02;;
19213;SDS011;9741;51.020;5.304;2023-04-26T09:07:28;3.80;;;1.08;;
19213;SDS011;9741;51.020;5.304;2023-04-26T09:09:58;2.50;;;0.77;;
19213;SDS011;9741;51.020;5.304;2023-04-26T09:12:31;0.85;;;0.60;;
19213;SDS011;9741;51.020;5.304;2023-04-26T09:15:00;0.60;;;0.60;;
19213;SDS011;9741;51.020;5.304;2023-04-26T09:17:29;1.55;;;0.63;;
19213;SDS011;9741;51.020;5.304;2023-04-26T09:19:59;0.93;;;0.50;;
19213;SDS011;9741;51.020;5.304;2023-04-26T09:22:31;0.25;;;0.25;;
19213;SDS011;9741;51.020;5.304;2023-04-26T09:25:00;1.20;;;0.68;;
19213;SDS011;9741;51.020;5.304;2023-04-26T09:27:32;7.93;;;0.43;;
19213;SDS011;9741;51.020;5.304;2023-04-26T09:30:04;0.65;;;0.65;;
19213;SDS011;9741;51.020;5.304;2023-04-26T09:35:33;1.33;;;0.65;;
19213;SDS011;9741;51.020;5.304;2023-04-26T09:38:02;1.23;;;0.75;;
19213;SDS011;9741;51.020;5.304;2023-04-26T09:40:32;8.18;;;0.80;;
19213;SDS011;9741;51.020;5.304;2023-04-26T09:43:00;1.50;;;0.73;;
19213;SDS011;9741;51.020;5.304;2023-04-26T09:45:31;4.60;;;0.60;;
19213;SDS011;9741;51.020;5.304;2023-04-26T09:48:12;1.00;;;0.45;;
19213;SDS011;9741;51.020;5.304;2023-04-26T09:50:42;0.75;;;0.63;;
19213;SDS011;9741;51.020;5.304;2023-04-26T09:53:23;0.95;;;0.90;;
19213;SDS011;9741;51.020;5.304;2023-04-26T09:55:56;2.15;;;0.77;;
19213;SDS011;9741;51.020;5.304;2023-04-26T09:58:31;2.38;;;1.00;;
19213;SDS011;9741;51.020;5.304;2023-04-26T10:01:01;0.65;;;0.55;;
19213;SDS011;9741;51.020;5.304;2023-04-26T10:03:30;0.65;;;0.65;;
19213;SDS011;9741;51.020;5.304;2023-04-26T10:06:01;3.92;;;0.52;;
19213;SDS011;9741;51.020;5.304;2023-04-26T10:08:30;1.25;;;0.63;;
19213;SDS011;9741;51.020;5.304;2023-04-26T10:10:57;0.47;;;0.47;;
19213;SDS011;9741;51.020;5.304;2023-04-26T10:13:27;1.50;;;0.60;;
19213;SDS011;9741;51.020;5.304;2023-04-26T10:15:54;0.50;;;0.50;;
19213;SDS011;9741;51.020;5.304;2023-04-26T10:18:25;1.67;;;1.17;;
19213;SDS011;9741;51.020;5.304;2023-04-26T10:20:59;0.73;;;0.60;;
19213;SDS011;9741;51.020;5.304;2023-04-26T10:23:32;0.30;;;0.30;;
19213;SDS011;9741;51.020;5.304;2023-04-26T10:26:00;0.50;;;0.50;;
19213;SDS011;9741;51.020;5.304;2023-04-26T10:31:22;2.22;;;1.00;;
19213;SDS011;9741;51.020;5.304;2023-04-26T10:39:34;0.38;;;0.38;;
19213;SDS011;9741;51.020;5.304;2023-04-26T10:42:18;0.50;;;0.43;;
19213;SDS011;9741;51.020;5.304;2023-04-26T10:44:51;0.57;;;0.57;;
19213;SDS011;9741;51.020;5.304;2023-04-26T10:47:21;1.88;;;0.70;;
19213;SDS011;9741;51.020;5.304;2023-04-26T10:49:53;1.45;;;0.52;;
19213;SDS011;9741;51.020;5.304;2023-04-26T10:52:29;1.55;;;0.57;;
19213;SDS011;9741;51.020;5.304;2023-04-26T10:54:59;0.52;;;0.52;;
19213;SDS011;9741;51.020;5.304;2023-04-26T11:00:29;1.95;;;1.05;;
19213;SDS011;9741;51.020;5.304;2023-04-26T11:03:01;1.25;;;0.68;;
19213;SDS011;9741;51.020;5.304;2023-04-26T11:08:27;0.88;;;0.82;;
19213;SDS011;9741;51.020;5.304;2023-04-26T11:10:57;0.80;;;0.80;;
19213;SDS011;9741;51.020;5.304;2023-04-26T11:13:34;1.23;;;0.75;;
19213;SDS011;9741;51.020;5.304;2023-04-26T11:16:03;0.80;;;0.80;;
19213;SDS011;9741;51.020;5.304;2023-04-26T11:18:33;11.15;;;1.40;;
19213;SDS011;9741;51.020;5.304;2023-04-26T11:21:05;1.48;;;1.38;;
19213;SDS011;9741;51.020;5.304;2023-04-26T11:23:33;1.17;;;0.90;;
19213;SDS011;9741;51.020;5.304;2023-04-26T11:26:02;3.22;;;1.10;;
19213;SDS011;9741;51.020;5.304;2023-04-26T11:28:30;0.63;;;0.52;;
19213;SDS011;9741;51.020;5.304;2023-04-26T11:30:58;3.22;;;1.08;;
19213;SDS011;9741;51.020;5.304;2023-04-26T11:33:26;0.70;;;0.70;;
19213;SDS011;9741;51.020;5.304;2023-04-26T11:35:54;3.60;;;0.80;;
19213;SDS011;9741;51.020;5.304;2023-04-26T11:38:27;1.63;;;0.60;;
19213;SDS011;9741;51.020;5.304;2023-04-26T11:40:56;1.15;;;0.65;;
19213;SDS011;9741;51.020;5.304;2023-04-26T11:43:35;0.45;;;0.45;;
19213;SDS011;9741;51.020;5.304;2023-04-26T11:46:05;1.60;;;1.20;;
19213;SDS011;9741;51.020;5.304;2023-04-26T11:48:34;1.05;;;0.52;;
19213;SDS011;9741;51.020;5.304;2023-04-26T11:51:04;4.78;;;1.17;;
19213;SDS011;9741;51.020;5.304;2023-04-26T11:53:36;3.45;;;0.47;;
19213;SDS011;9741;51.020;5.304;2023-04-26T11:56:12;0.93;;;0.82;;
19213;SDS011;9741;51.020;5.304;2023-04-26T11:58:43;0.47;;;0.47;;
19213;SDS011;9741;51.020;5.304;2023-04-26T12:01:18;3.40;;;1.02;;
19213;SDS011;9741;51.020;5.304;2023-04-26T12:03:48;1.02;;;0.85;;
19213;SDS011;9741;51.020;5.304;2023-04-26T12:06:18;0.93;;;0.60;;
19213;SDS011;9741;51.020;5.304;2023-04-26T12:08:51;0.45;;;0.45;;
19213;SDS011;9741;51.020;5.304;2023-04-26T12:11:21;1.48;;;1.17;;
19213;SDS011;9741;51.020;5.304;2023-04-26T12:13:51;1.38;;;0.90;;
19213;SDS011;9741;51.020;5.304;2023-04-26T12:16:21;0.68;;;0.63;;
19213;SDS011;9741;51.020;5.304;2023-04-26T12:18:51;1.07;;;0.87;;
19213;SDS011;9741;51.020;5.304;2023-04-26T12:21:21;1.20;;;1.10;;
19213;SDS011;9741;51.020;5.304;2023-04-26T12:23:52;0.93;;;0.82;;
19213;SDS011;9741;51.020;5.304;2023-04-26T12:26:19;8.48;;;0.93;;
19213;SDS011;9741;51.020;5.304;2023-04-26T12:28:47;0.50;;;0.50;;
19213;SDS011;9741;51.020;5.304;2023-04-26T12:31:15;1.17;;;0.77;;
19213;SDS011;9741;51.020;5.304;2023-04-26T12:33:44;0.32;;;0.32;;
19213;SDS011;9741;51.020;5.304;2023-04-26T12:36:12;0.68;;;0.68;;
19213;SDS011;9741;51.020;5.304;2023-04-26T12:38:40;1.20;;;0.60;;
19213;SDS011;9741;51.020;5.304;2023-04-26T12:41:10;3.75;;;0.70;;
19213;SDS011;9741;51.020;5.304;2023-04-26T12:43:43;0.40;;;0.40;;
19213;SDS011;9741;51.020;5.304;2023-04-26T12:46:12;3.13;;;0.82;;
19213;SDS011;9741;51.020;5.304;2023-04-26T12:48:43;0.68;;;0.60;;
19213;SDS011;9741;51.020;5.304;2023-04-26T12:51:11;0.30;;;0.30;;
19213;SDS011;9741;51.020;5.304;2023-04-26T12:53:39;0.50;;;0.50;;
19213;SDS011;9741;51.020;5.304;2023-04-26T12:56:06;0.80;;;0.73;;
19213;SDS011;9741;51.020;5.304;2023-04-26T12:58:41;0.40;;;0.40;;
19213;SDS011;9741;51.020;5.304;2023-04-26T13:01:10;3.70;;;1.13;;
19213;SDS011;9741;51.020;5.304;2023-04-26T13:03:39;0.98;;;0.88;;
19213;SDS011;9741;51.020;5.304;2023-04-26T13:06:09;1.75;;;1.10;;
19213;SDS011;9741;51.020;5.304;2023-04-26T13:08:37;0.82;;;0.82;;
19213;SDS011;9741;51.020;5.304;2023-04-26T13:11:06;0.88;;;0.77;;
19213;SDS011;9741;51.020;5.304;2023-04-26T13:13:38;3.63;;;0.90;;
19213;SDS011;9741;51.020;5.304;2023-04-26T13:16:06;2.30;;;0.80;;
19213;SDS011;9741;51.020;5.304;2023-04-26T13:18:36;0.60;;;0.50;;
19213;SDS011;9741;51.020;5.304;2023-04-26T13:21:12;0.70;;;0.70;;
19213;SDS011;9741;51.020;5.304;2023-04-26T13:23:47;1.15;;;0.60;;
19213;SDS011;9741;51.020;5.304;2023-04-26T13:26:17;0.63;;;0.57;;
19213;SDS011;9741;51.020;5.304;2023-04-26T13:28:47;1.00;;;0.50;;
19213;SDS011;9741;51.020;5.304;2023-04-26T13:31:14;1.00;;;0.70;;
19213;SDS011;9741;51.020;5.304;2023-04-26T13:33:43;0.80;;;0.80;;
19213;SDS011;9741;51.020;5.304;2023-04-26T13:36:13;1.08;;;0.88;;
19213;SDS011;9741;51.020;5.304;2023-04-26T13:38:41;0.50;;;0.50;;
19213;SDS011;9741;51.020;5.304;2023-04-26T13:41:09;0.50;;;0.50;;
19213;SDS011;9741;51.020;5.304;2023-04-26T13:43:37;0.65;;;0.65;;
19213;SDS011;9741;51.020;5.304;2023-04-26T13:46:11;0.50;;;0.50;;
19213;SDS011;9741;51.020;5.304;2023-04-26T13:48:40;0.45;;;0.45;;
19213;SDS011;9741;51.020;5.304;2023-04-26T13:51:08;3.50;;;0.68;;
19213;SDS011;9741;51.020;5.304;2023-04-26T13:53:36;0.50;;;0.50;;
19213;SDS011;9741;51.020;5.304;2023-04-26T13:56:04;1.13;;;0.70;;
19213;SDS011;9741;51.020;5.304;2023-04-26T13:58:34;4.35;;;1.20;;
19213;SDS011;9741;51.020;5.304;2023-04-26T14:01:03;0.95;;;0.90;;
19213;SDS011;9741;51.020;5.304;2023-04-26T14:03:33;1.13;;;1.02;;
19213;SDS011;9741;51.020;5.304;2023-04-26T14:06:00;0.95;;;0.75;;
19213;SDS011;9741;51.020;5.304;2023-04-26T14:08:28;6.50;;;1.08;;
19213;SDS011;9741;51.020;5.304;2023-04-26T14:10:56;0.60;;;0.60;;
19213;SDS011;9741;51.020;5.304;2023-04-26T14:13:24;0.68;;;0.60;;
19213;SDS011;9741;51.020;5.304;2023-04-26T14:15:52;3.53;;;0.95;;
19213;SDS011;9741;51.020;5.304;2023-04-26T14:18:20;0.63;;;0.52;;
19213;SDS011;9741;51.020;5.304;2023-04-26T14:20:50;0.75;;;0.75;;
19213;SDS011;9741;51.020;5.304;2023-04-26T14:23:18;1.13;;;0.80;;
19213;SDS011;9741;51.020;5.304;2023-04-26T14:25:49;1.55;;;1.00;;
19213;SDS011;9741;51.020;5.304;2023-04-26T14:28:18;1.13;;;1.02;;
19213;SDS011;9741;51.020;5.304;2023-04-26T14:30:45;5.00;;;1.05;;
19213;SDS011;9741;51.020;5.304;2023-04-26T14:33:13;0.60;;;0.60;;
19213;SDS011;9741;51.020;5.304;2023-04-26T14:35:40;1.17;;;1.02;;
19213;SDS011;9741;51.020;5.304;2023-04-26T14:38:09;1.65;;;1.05;;
19213;SDS011;9741;51.020;5.304;2023-04-26T14:40:36;0.55;;;0.43;;
19213;SDS011;9741;51.020;5.304;2023-04-26T14:43:06;0.90;;;0.77;;
19213;SDS011;9741;51.020;5.304;2023-04-26T14:45:34;4.75;;;0.63;;
19213;SDS011;9741;51.020;5.304;2023-04-26T14:48:05;2.42;;;1.17;;
19213;SDS011;9741;51.020;5.304;2023-04-26T14:50:33;0.80;;;0.73;;
19213;SDS011;9741;51.020;5.304;2023-04-26T14:53:03;1.13;;;0.68;;
19213;SDS011;9741;51.020;5.304;2023-04-26T14:55:32;0.43;;;0.43;;
19213;SDS011;9741;51.020;5.304;2023-04-26T14:58:00;0.43;;;0.38;;
19213;SDS011;9741;51.020;5.304;2023-04-26T15:00:28;0.85;;;0.73;;
19213;SDS011;9741;51.020;5.304;2023-04-26T15:02:58;0.82;;;0.60;;
19213;SDS011;9741;51.020;5.304;2023-04-26T15:05:26;3.50;;;0.88;;
19213;SDS011;9741;51.020;5.304;2023-04-26T15:07:54;4.63;;;1.17;;
19213;SDS011;9741;51.020;5.304;2023-04-26T15:10:22;0.95;;;0.65;;
19213;SDS011;9741;51.020;5.304;2023-04-26T15:12:53;0.88;;;0.88;;
19213;SDS011;9741;51.020;5.304;2023-04-26T15:15:21;0.52;;;0.52;;
19213;SDS011;9741;51.020;5.304;2023-04-26T15:17:53;0.73;;;0.73;;
19213;SDS011;9741;51.020;5.304;2023-04-26T15:20:22;1.20;;;0.82;;
19213;SDS011;9741;51.020;5.304;2023-04-26T15:22:50;1.80;;;0.82;;
19213;SDS011;9741;51.020;5.304;2023-04-26T15:25:17;0.68;;;0.68;;
19213;SDS011;9741;51.020;5.304;2023-04-26T15:27:45;3.80;;;0.95;;
19213;SDS011;9741;51.020;5.304;2023-04-26T15:30:18;1.15;;;0.80;;
19213;SDS011;9741;51.020;5.304;2023-04-26T15:32:46;2.00;;;0.93;;